Data for 09/14/2009

Time Sea-Level Adjusted Pressure Absolute Pressure Temperature Relative Humidity Dew Point   
(mb) (inHg) (mb) (inHg) (C) (F) (%) (C) (F)
00:05 1011 29.85 840 24.81 15 59.1 46 3.7 38.6
00:10 1011 29.85 840 24.81 15 59.1 46 3.7 38.7
00:15 1011 29.85 840 24.81 15 59.1 46 3.7 38.7
00:20 1011 29.85 840 24.81 15 59 47 3.8 38.8
00:25 1011 29.85 840 24.81 15 59 47 3.8 38.9
00:30 1011 29.85 840 24.81 15 59 47 3.9 38.9
00:35 1011 29.85 840 24.81 15 58.9 47 4 39.1
00:40 1011 29.85 840 24.81 14.9 58.7 47 3.8 38.9
00:45 1011 29.85 840 24.81 14.8 58.7 48 4 39.1
00:50 1011 29.85 840 24.81 14.7 58.5 48 4 39.2
00:55 1011 29.85 840 24.81 14.6 58.3 49 4 39.2
01:00 1011 29.85 840 24.81 14.6 58.3 49 4 39.2
01:05 1011 29.85 840 24.81 14.5 58.2 49 4.1 39.4
01:10 1011 29.85 840 24.81 14.5 58 49 4.1 39.4
01:15 1011 29.85 840 24.81 14.3 57.8 51 4.4 40
01:20 1011 29.85 841 24.83 14.2 57.6 51 4.3 39.7
01:25 1011 29.85 841 24.83 14.2 57.5 52 4.6 40.3
01:30 1011 29.85 841 24.83 14 57.2 53 4.5 40.1
01:35 1011 29.85 841 24.83 13.8 56.9 53 4.5 40
01:40 1011 29.85 841 24.83 13.7 56.7 53 4.4 39.9
01:45 1011 29.85 841 24.83 13.6 56.5 53 4.4 39.9
01:50 1011 29.85 841 24.83 13.6 56.4 53 4.4 39.8
01:55 1011 29.85 841 24.83 13.5 56.3 54 4.4 39.9
02:00 1011 29.85 841 24.83 13.5 56.2 54 4.4 39.8
02:05 1012 29.88 841 24.83 13.4 56.2 54 4.5 40.1
02:10 1012 29.88 841 24.83 13.3 56 55 4.6 40.4
02:15 1012 29.88 841 24.83 13.1 55.5 56 4.6 40.3
02:20 1012 29.88 841 24.83 12.8 55 57 4.5 40.1
02:25 1012 29.88 841 24.83 12.7 54.8 57 4.4 39.9
02:30 1012 29.88 841 24.83 12.8 55 56 4.3 39.8
02:35 1012 29.88 841 24.83 12.9 55.3 56 4.3 39.8
02:40 1012 29.88 841 24.83 12.9 55.3 57 4.6 40.2
02:45 1012 29.88 841 24.83 12.7 54.9 57 4.6 40.3
02:50 1012 29.88 841 24.83 12.5 54.4 58 4.6 40.2
02:55 1012 29.88 841 24.83 12.2 53.9 59 4.5 40.1
03:00 1012 29.88 841 24.83 12 53.6 60 4.6 40.2
03:05 1012 29.88 841 24.83 11.9 53.4 60 4.5 40.1
03:10 1012 29.88 841 24.83 11.9 53.4 60 4.5 40.1
03:15 1012 29.88 841 24.83 11.9 53.5 60 4.4 39.9
03:20 1012 29.88 841 24.83 12.1 53.8 59 4.4 40
03:25 1012 29.88 841 24.83 12.2 54 59 4.6 40.2
03:30 1012 29.88 841 24.83 12.1 53.9 59 4.5 40.1
03:35 1012 29.88 841 24.83 12.2 54 60 4.7 40.4
03:40 1012 29.88 841 24.83 11.9 53.3 61 4.6 40.4
03:45 1012 29.88 841 24.83 11.7 53 62 4.7 40.5
03:50 1012 29.88 841 24.83 11.6 52.9 61 4.5 40.1
03:55 1012 29.88 841 24.83 11.7 53 61 4.4 40
04:00 1012 29.88 841 24.83 11.6 52.9 63 4.7 40.5
04:05 1012 29.88 841 24.83 11.4 52.5 62 4.4 40
04:10 1012 29.88 841 24.83 11.4 52.6 62 4.4 40
04:15 1012 29.88 841 24.83 11.5 52.6 61 4.3 39.8
04:20 1012 29.88 842 24.86 11.5 52.8 61 4.2 39.6
04:25 1012 29.88 842 24.86 11.6 52.9 59 4.1 39.3
04:30 1012 29.88 842 24.86 11.7 53 60 4.3 39.7
04:35 1012 29.88 842 24.86 11.7 53.1 60 4.1 39.5
04:40 1012 29.88 842 24.86 11.6 52.9 60 4.1 39.3
04:45 1012 29.88 842 24.86 11.4 52.5 59 3.8 38.9
04:50 1012 29.88 842 24.86 11.3 52.3 60 3.9 38.9
04:55 1012 29.88 842 24.86 11 51.8 61 3.7 38.7
05:00 1013 29.91 842 24.86 10.8 51.4 61 3.6 38.4
05:05 1013 29.91 842 24.86 10.8 51.5 60 3.4 38
05:10 1013 29.91 842 24.86 11.2 52.1 58 3.2 37.8
05:15 1013 29.91 842 24.86 11.3 52.3 60 3.8 38.9
05:20 1013 29.91 842 24.86 11.3 52.3 59 3.7 38.6
05:25 1013 29.91 842 24.86 11.2 52.1 60 3.8 38.8
05:30 1013 29.91 842 24.86 11.1 51.9 60 3.6 38.5
05:35 1013 29.91 842 24.86 10.8 51.5 61 3.5 38.4
05:40 1013 29.91 842 24.86 10.5 50.9 62 3.6 38.5
05:45 1013 29.91 842 24.86 10.2 50.4 62 3.4 38.1
05:50 1013 29.91 842 24.86 10 50 62 3.1 37.5
05:55 1013 29.91 842 24.86 10.1 50.1 61 3 37.5
06:00 1013 29.91 842 24.86 10.3 50.6 60 3 37.4
06:05 1013 29.91 842 24.86 10.7 51.2 59 2.9 37.3
06:10 1013 29.91 842 24.86 11 51.7 58 3 37.3
06:15 1013 29.91 842 24.86 10.5 50.9 60 3.1 37.6
06:20 1013 29.91 842 24.86 10.2 50.3 62 3.3 37.9
06:25 1013 29.91 842 24.86 9.7 49.5 64 3.2 37.8
06:30 1013 29.91 842 24.86 9.7 49.5 64 3.4 38.1
06:35 1013 29.91 842 24.86 9.6 49.3 65 3.4 38.2
06:40 1013 29.91 842 24.86 9.8 49.6 65 3.5 38.3
06:45 1013 29.91 842 24.86 9.7 49.5 65 3.5 38.3
06:50 1013 29.91 842 24.86 10 50 62 3.1 37.5
06:55 1013 29.91 842 24.86 9.9 49.9 62 3 37.3
07:00 1013 29.91 842 24.86 9.7 49.4 63 3.1 37.5
07:05 1013 29.91 843 24.89 9.7 49.5 64 3.3 38
07:10 1013 29.91 843 24.89 9.9 49.9 63 3.3 37.9
07:15 1013 29.91 843 24.89 9.6 49.3 65 3.5 38.2
07:20 1014 29.94 843 24.89 9.2 48.5 67 3.3 37.9
07:25 1014 29.94 843 24.89 9.1 48.3 68 3.5 38.3
07:30 1014 29.94 843 24.89 9.3 48.7 64 2.8 37.1
07:35 1014 29.94 843 24.89 9.8 49.6 62 3 37.4
07:40 1014 29.94 843 24.89 10.1 50.2 60 2.8 37.1
07:45 1014 29.94 843 24.89 10.5 51 59 2.9 37.2
07:50 1014 29.94 843 24.89 10.9 51.6 58 2.9 37.3
07:55 1014 29.94 843 24.89 11 51.8 57 3 37.4
08:00 1014 29.94 843 24.89 11.1 52.1 58 3.3 37.9
08:05 1014 29.94 843 24.89 11.2 52.1 58 3.2 37.7
08:10 1014 29.94 843 24.89 11.4 52.6 56 3.1 37.6
08:15 1014 29.94 843 24.89 12 53.6 54 3 37.3
08:20 1014 29.94 843 24.89 12.2 54 55 3.4 38.1
08:25 1014 29.94 843 24.89 12.4 54.2 54 3.5 38.3
08:30 1014 29.94 843 24.89 12.7 54.8 55 3.8 38.9
08:35 1014 29.94 843 24.89 13.1 55.6 52 3.6 38.4
08:40 1014 29.94 843 24.89 13.7 56.7 51 3.9 39
08:45 1014 29.94 843 24.89 14.8 58.7 48 4 39.3
08:50 1014 29.94 843 24.89 15.9 60.6 46 4.4 39.9
08:55 1014 29.94 843 24.89 16.5 61.6 45 4.7 40.5
09:00 1014 29.94 843 24.89 16.6 61.9 44 4.4 39.8
09:05 1014 29.94 843 24.89 16.8 62.3 43 4.4 40
09:10 1014 29.94 843 24.89 17.2 62.9 45 5.1 41.3
09:15 1014 29.94 844 24.92 17.3 63.1 44 5 41
09:20 1014 29.94 844 24.92 17 62.7 45 5.1 41.2
09:25 1014 29.94 844 24.92 17.2 63 43 4.5 40.2
09:30 1014 29.94 844 24.92 17.6 63.8 41 4.4 39.8
09:35 1014 29.94 844 24.92 17.9 64.2 39 3.7 38.7
09:40 1014 29.94 844 24.92 18.8 65.8 36 3.5 38.4
09:45 1014 29.94 844 24.92 19.5 67.1 35 3.8 38.8
09:50 1014 29.94 844 24.92 18.9 66 39 4.6 40.3
09:55 1014 29.94 844 24.92 19.4 67 37 4.4 39.9
10:00 1014 29.94 844 24.92 20.1 68.1 36 4.5 40.1
10:05 1014 29.94 844 24.92 19.7 67.5 36 4.3 39.8
10:10 1014 29.94 844 24.92 20 67.9 35 4.1 39.5
10:15 1014 29.94 844 24.92 19.8 67.6 35 4.2 39.5
10:20 1014 29.94 844 24.92 19.8 67.6 35 4.2 39.5
10:25 1015 29.97 844 24.92 20.7 69.3 34 4.3 39.7
10:30 1015 29.97 844 24.92 21.1 70 32 4 39.2
10:35 1014 29.94 844 24.92 20.8 69.4 34 4.5 40.2
10:40 1015 29.97 844 24.92 20.9 69.6 33 4.3 39.8
10:45 1015 29.97 844 24.92 21 69.8 35 4.9 40.9
10:50 1015 29.97 844 24.92 20.8 69.4 32 3.8 38.9
10:55 1015 29.97 844 24.92 20.6 69 33 3.9 39
11:00 1015 29.97 844 24.92 20.9 69.6 31 3.4 38.2
11:05 1015 29.97 844 24.92 22.5 72.5 29 3.7 38.6
11:10 1015 29.97 844 24.92 22.8 73 29 4.1 39.4
11:15 1015 29.97 844 24.92 21.8 71.2 32 4.4 39.8
11:20 1015 29.97 844 24.92 21.7 71.1 32 4.4 39.9
11:25 1015 29.97 844 24.92 22 71.6 30 3.8 38.8
11:30 1015 29.97 844 24.92 22.9 73.2 29 4.1 39.4
11:35 1015 29.97 844 24.92 22.3 72.2 30 4.2 39.6
11:40 1015 29.97 844 24.92 22.9 73.2 29 4.2 39.6
11:45 1015 29.97 844 24.92 23.6 74.4 28 4.1 39.4
11:50 1015 29.97 844 24.92 23.6 74.5 28 4.5 40
11:55 1015 29.97 844 24.92 23.8 74.8 29 5.1 41.2
12:00 1015 29.97 844 24.92 23.8 74.9 29 4.7 40.5
12:05 1015 29.97 844 24.92 24.3 75.7 27 4.5 40.2
12:10 1015 29.97 844 24.92 23.9 75.1 28 4.5 40.1
12:15 1015 29.97 844 24.92 24.2 75.6 27 4.3 39.7
12:20 1015 29.97 844 24.92 24.9 76.8 25 3.6 38.5
12:25 1015 29.97 844 24.92 24.2 75.5 27 4.1 39.4
12:30 1015 29.97 844 24.92 24.3 75.7 25 3.4 38.1
12:35 1015 29.97 844 24.92 25.2 77.4 24 3.7 38.6
12:40 1015 29.97 844 24.92 25.2 77.3 24 3.5 38.4
12:45 1015 29.97 844 24.92 25.8 78.4 24 3.7 38.6
12:50 1015 29.97 844 24.92 26.7 80.1 25 5.4 41.7
12:55 1015 29.97 844 24.92 26.9 80.5 23 4.3 39.7
13:00 1015 29.97 844 24.92 26.8 80.3 24 4.7 40.4
13:05 1015 29.97 844 24.92 26.7 80 24 4.9 40.8
13:10 1015 29.97 844 24.92 26.9 80.5 23 4.6 40.4
13:15 1015 29.97 844 24.92 26.7 80.1 25 5.3 41.5
13:20 1015 29.97 844 24.92 26.1 78.9 27 6 42.8
13:25 1015 29.97 844 24.92 26.1 79 26 5.5 41.8
13:30 1015 29.97 844 24.92 25.8 78.4 26 5.2 41.3
13:35 1015 29.97 844 24.92 25.4 77.7 27 5.1 41.1
13:40 1015 29.97 844 24.92 25.1 77.2 28 5.7 42.3
13:45 1015 29.97 844 24.92 24.9 76.8 27 5.1 41.2
13:50 1015 29.97 844 24.92 24.8 76.6 27 4.6 40.2
13:55 1014 29.94 844 24.92 24.9 76.9 27 4.9 40.8
14:00 1014 29.94 844 24.92 25.3 77.5 27 5.2 41.3
14:05 1014 29.94 844 24.92 25.5 77.9 27 5.5 41.9
14:10 1014 29.94 844 24.92 26.2 79.2 23 3.8 38.9
14:15 1014 29.94 843 24.89 27.8 82 21 3.8 38.8
14:20 1014 29.94 843 24.89 28.5 83.3 20 3.7 38.6
14:25 1014 29.94 843 24.89 27.9 82.3 21 3.6 38.5
14:30 1014 29.94 843 24.89 28.2 82.7 20 3.4 38.2
14:35 1014 29.94 843 24.89 28.6 83.5 18 2.5 36.5
14:40 1014 29.94 843 24.89 28.5 83.2 20 3.3 38
14:45 1014 29.94 843 24.89 28.3 83 18 2.2 36
14:50 1014 29.94 843 24.89 28.5 83.4 18 1.9 35.5
14:55 1014 29.94 843 24.89 28.3 83 20 3.7 38.6
15:00 1014 29.94 843 24.89 28.1 82.5 21 4.2 39.6
15:05 1014 29.94 843 24.89 27.6 81.6 22 4.2 39.6
15:10 1014 29.94 843 24.89 27 80.7 22 3.6 38.5
15:15 1014 29.94 843 24.89 27.2 81 21 3.5 38.2
15:20 1014 29.94 843 24.89 27.9 82.3 20 3.5 38.3
15:25 1014 29.94 843 24.89 28.5 83.2 19 3.2 37.7
15:30 1014 29.94 843 24.89 27.9 82.2 21 4.1 39.4
15:35 1014 29.94 843 24.89 27.5 81.5 22 4.3 39.7
15:40 1014 29.94 843 24.89 27.2 81 22 4.1 39.4
15:45 1014 29.94 843 24.89 27.1 80.8 20 2.3 36.2
15:50 1014 29.94 843 24.89 27.3 81.2 21 3.3 37.9
15:55 1014 29.94 843 24.89 27.1 80.8 22 3.7 38.6
16:00 1014 29.94 843 24.89 26.8 80.2 22 3.9 39
16:05 1014 29.94 844 24.92 26.8 80.2 21 2.9 37.2
16:10 1014 29.94 844 24.92 26.5 79.7 21 2.9 37.2
16:15 1015 29.97 844 24.92 26 78.7 21 2.5 36.4
16:20 1015 29.97 844 24.92 25.8 78.5 22 2.6 36.7
16:25 1015 29.97 844 24.92 25.7 78.3 23 3.2 37.7
16:30 1015 29.97 844 24.92 25.7 78.2 25 4.5 40.1
16:35 1015 29.97 844 24.92 25.6 78 21 2.1 35.8
16:40 1015 29.97 844 24.92 25.8 78.5 21 2.1 35.8
16:45 1014 29.94 844 24.92 26.1 79 22 2.9 37.1
16:50 1015 29.97 844 24.92 25.9 78.7 21 2.5 36.5
16:55 1015 29.97 844 24.92 25.4 77.7 24 3.9 39
17:00 1015 29.97 844 24.92 25.1 77.1 23 3 37.5
17:05 1015 29.97 844 24.92 25 77 23 2.8 37
17:10 1015 29.97 844 24.92 24.9 76.9 27 5.1 41.1
17:15 1015 29.97 844 24.92 24.8 76.7 26 4.1 39.4
17:20 1015 29.97 844 24.92 24.9 76.9 26 4.4 40
17:25 1015 29.97 844 24.92 25 76.9 24 3.5 38.3
17:30 1015 29.97 844 24.92 24.7 76.5 25 3.9 39
17:35 1015 29.97 844 24.92 24.7 76.4 27 4.9 40.8
17:40 1015 29.97 844 24.92 24.5 76.1 27 4.5 40.1
17:45 1015 29.97 844 24.92 24.5 76 25 3.3 38
17:50 1015 29.97 844 24.92 24.4 76 25 3.4 38.1
17:55 1015 29.97 844 24.92 24.6 76.2 29 5.4 41.7
18:00 1015 29.97 844 24.92 24.7 76.5 28 5.2 41.4
18:05 1015 29.97 844 24.92 24.7 76.4 24 3.1 37.6
18:10 1015 29.97 844 24.92 24.8 76.6 26 4.4 39.9
18:15 1015 29.97 844 24.92 24.9 76.8 28 5.2 41.4
18:20 1015 29.97 845 24.95 24.6 76.3 29 5.7 42.3
18:25 1015 29.97 845 24.95 24.2 75.5 31 6.3 43.4
18:30 1015 29.97 845 24.95 23.5 74.2 34 6.8 44.2
18:35 1016 30 845 24.95 23.2 73.7 33 6 42.8
18:40 1016 30 845 24.95 23.1 73.6 34 6.7 44.1
18:45 1016 30 845 24.95 23 73.4 32 5.5 42
18:50 1016 30 845 24.95 22.8 73 33 5.8 42.4
18:55 1016 30 845 24.95 22.8 73.1 30 4.6 40.3
19:00 1016 30 845 24.95 23 73.3 29 4.3 39.8
19:05 1016 30 845 24.95 22.8 73.1 28 3.8 38.8
19:10 1016 30 845 24.95 22.8 73 28 3.3 38
19:15 1016 30 846 24.98 22.6 72.7 29 3.7 38.6
19:20 1017 30.03 846 24.98 22.3 72.2 30 4.1 39.4
19:25 1017 30.03 846 24.98 21.8 71.3 32 4.7 40.4
19:30 1017 30.03 846 24.98 21.2 70.2 34 5 41
19:35 1017 30.03 846 24.98 20.9 69.7 34 4.6 40.2
19:40 1017 30.03 846 24.98 21.1 69.9 32 4 39.2
19:45 1017 30.03 846 24.98 21.4 70.5 31 3.9 39
19:50 1017 30.03 847 25.01 21.6 71 31 3.8 38.8
19:55 1017 30.03 847 25.01 21.8 71.3 31 4.3 39.7
20:00 1018 30.06 847 25.01 21.5 70.6 33 4.6 40.3
20:05 1018 30.06 847 25.01 21.1 69.9 35 5 41.1
20:10 1018 30.06 847 25.01 20.7 69.3 36 5.2 41.4
20:15 1018 30.06 847 25.01 20.6 69.1 35 4.9 40.7
20:20 1018 30.06 847 25.01 20.8 69.4 36 5.3 41.6
20:25 1018 30.06 847 25.01 20.8 69.5 34 4.6 40.3
20:30 1018 30.06 847 25.01 20.9 69.5 35 5 41
20:35 1018 30.06 847 25.01 20.9 69.5 33 4.1 39.3
20:40 1018 30.06 848 25.04 21.3 70.3 32 4.1 39.3
20:45 1018 30.06 848 25.04 21.4 70.6 33 4.5 40.1
20:50 1018 30.06 848 25.04 21.2 70.2 33 4.4 39.9
20:55 1018 30.06 847 25.01 21 69.8 33 4.3 39.7
21:00 1018 30.06 847 25.01 21 69.9 34 4.6 40.4
21:05 1018 30.06 847 25.01 20.7 69.3 35 5 41
21:10 1018 30.06 847 25.01 20.5 68.8 37 5.4 41.6
21:15 1018 30.06 848 25.04 20.3 68.6 38 5.8 42.5
21:20 1018 30.06 848 25.04 20.1 68.2 42 6.9 44.3
21:25 1018 30.06 848 25.04 19.8 67.6 44 7.3 45.1
21:30 1018 30.06 848 25.04 19.5 67.1 45 7.3 45.1
21:35 1018 30.06 848 25.04 19.2 66.6 45 7 44.6
21:40 1018 30.06 848 25.04 19 66.3 45 7.1 44.8
21:45 1018 30.06 848 25.04 19 66.2 44 6.6 43.9
21:50 1018 30.06 848 25.04 19 66.3 44 6.5 43.7
21:55 1018 30.06 847 25.01 19 66.1 45 6.8 44.2
22:00 1018 30.06 847 25.01 18.8 65.9 45 6.7 44
22:05 1018 30.06 847 25.01 18.6 65.5 46 6.9 44.4
22:10 1018 30.06 848 25.04 18.6 65.4 47 7.1 44.8
22:15 1019 30.09 848 25.04 18.4 65.2 49 7.8 46
22:20 1019 30.09 848 25.04 18.3 64.9 51 8 46.4
22:25 1019 30.09 848 25.04 18.1 64.7 49 7.3 45.2
22:30 1019 30.09 848 25.04 18.4 65.1 50 7.8 46
22:35 1019 30.09 848 25.04 18.5 65.3 49 7.8 46
22:40 1019 30.09 848 25.04 18.3 64.9 52 8.5 47.2
22:45 1019 30.09 848 25.04 18.2 64.7 51 8.1 46.6
22:50 1019 30.09 848 25.04 18 64.4 47 6.7 44.1
22:55 1019 30.09 848 25.04 18.3 65 50 7.9 46.2
23:00 1019 30.09 848 25.04 18.5 65.3 46 6.8 44.2
23:05 1019 30.09 848 25.04 18.6 65.6 46 6.9 44.4
23:10 1019 30.09 848 25.04 18.8 65.8 43 6.2 43.2
23:15 1019 30.09 848 25.04 18.7 65.7 44 6.4 43.5
23:20 1019 30.09 848 25.04 18.6 65.4 45 6.5 43.6
23:25 1019 30.09 848 25.04 18.3 65 44 6.1 43
23:30 1019 30.09 848 25.04 18.3 64.9 45 6.4 43.5
23:35 1019 30.09 848 25.04 18 64.3 49 7.3 45.1
23:40 1019 30.09 849 25.07 17.7 63.8 49 7.1 44.8
23:45 1019 30.09 849 25.07 17.6 63.6 48 6.7 44
23:50 1019 30.09 849 25.07 17.5 63.4 46 5.8 42.4
23:55 1020 30.12 849 25.07 17.7 63.8 47 6.5 43.6
24:00 1020 30.12 849 25.07 17.5 63.5 46 5.8 42.4